Finningley, United Kingdom
Current Conditions -  °F | °C
As of 4:20 PM on Wednesday 28 Jan 2015 (Local Time) from EGCN Reporting Station
Light Snow Light Snow  
Wind Chill: 28°   Ceiling: Unl
Heat Index: 39°   Visibility: 6mi
Dew Point: 32°   Wind: 26mph
Humidity: 75%   Direction: 290°WNW
Pressure: 29.47"   Gusts: 39mph
Location:  53.49°N, 0.99°W
Report Text: EGCN 281620Z 29023G34KT 260V330 9999 4000NE -RASN FEW019 SCT025 04/00 Q0998
Loading
Personal Weather Stations






























Interactive Weather Map New forecast layout! Learn more

10-Day Weather Forecast

Advertisements
Track Severe Weather on mobile